Time,TemperatureF,DewpointF,PressureIn,WindDirection,WindDirectionDegrees,WindSpeedMPH,WindSpeedGustMPH,Humidity,HourlyPrecipIn,Conditions,Clouds,dailyrainin,SoftwareType,DateUTC
2013-05-20 00:11:00,69.4,62.0,29.70,ESE,116,2.0,5.0,77,0.00,,,0.00,weatherlink.com 1.10,2013-05-20 05:11:00,
2013-05-20 00:26:00,69.4,62.0,29.70,ESE,115,4.0,6.0,76,0.00,,,0.00,weatherlink.com 1.10,2013-05-20 05:26:00,
2013-05-20 00:41:00,69.0,62.0,29.70,ENE,72,1.0,3.0,77,0.00,,,0.00,weatherlink.com 1.10,2013-05-20 05:41:00,
2013-05-20 00:56:00,69.2,62.0,29.70,ENE,59,3.0,4.0,77,0.00,,,0.00,weatherlink.com 1.10,2013-05-20 05:56:00,
2013-05-20 01:11:00,69.8,62.0,29.70,SE,141,0.0,5.0,76,0.00,,,0.00,weatherlink.com 1.10,2013-05-20 06:11:00,
2013-05-20 01:26:00,70.2,62.0,29.71,SSE,160,0.0,5.0,75,0.00,,,0.00,weatherlink.com 1.10,2013-05-20 06:26:00,
2013-05-20 01:41:00,70.5,62.0,29.71,East,94,1.0,6.0,75,0.00,,,0.00,weatherlink.com 1.10,2013-05-20 06:41:00,
2013-05-20 01:56:00,70.4,62.0,29.71,SE,137,1.0,4.0,75,0.00,,,0.00,weatherlink.com 1.10,2013-05-20 06:56:00,
2013-05-20 02:11:00,70.3,63.0,29.71,SE,141,0.0,5.0,77,0.00,,,0.00,weatherlink.com 1.10,2013-05-20 07:11:00,
2013-05-20 02:26:00,70.3,63.0,29.71,South,183,2.0,4.0,78,0.00,,,0.00,weatherlink.com 1.10,2013-05-20 07:26:00,
2013-05-20 02:41:00,70.7,64.0,29.70,ESE,108,2.0,4.0,80,0.00,,,0.00,weatherlink.com 1.10,2013-05-20 07:41:00,
2013-05-20 02:56:00,70.7,64.0,29.70,SE,135,3.0,4.0,80,0.00,,,0.00,weatherlink.com 1.10,2013-05-20 07:56:00,
2013-05-20 03:11:00,70.8,65.0,29.71,West,267,4.0,14.0,81,0.00,,,0.00,weatherlink.com 1.10,2013-05-20 08:11:00,
2013-05-20 03:26:00,71.1,64.0,29.69,SSW,205,0.0,3.0,78,0.00,,,0.00,weatherlink.com 1.10,2013-05-20 08:26:00,
2013-05-20 03:41:00,70.5,63.0,29.70,WSW,256,3.0,7.0,77,0.00,,,0.00,weatherlink.com 1.10,2013-05-20 08:41:00,
2013-05-20 03:56:00,69.6,62.0,29.69,WSW,256,0.0,3.0,76,0.00,,,0.00,weatherlink.com 1.10,2013-05-20 08:56:00,
2013-05-20 04:11:00,68.5,61.0,29.68,WSW,256,0.0,0.0,78,0.00,,,0.00,weatherlink.com 1.10,2013-05-20 09:11:00,
2013-05-20 04:26:00,67.7,61.0,29.68,NW,321,1.0,1.0,80,0.00,,,0.00,weatherlink.com 1.10,2013-05-20 09:26:00,
2013-05-20 04:41:00,67.2,61.0,29.67,East,79,1.0,2.0,81,0.00,,,0.00,weatherlink.com 1.10,2013-05-20 09:41:00,
2013-05-20 04:56:00,67.6,61.0,29.68,NE,51,2.0,3.0,80,0.00,,,0.00,weatherlink.com 1.10,2013-05-20 09:56:00,
2013-05-20 05:11:00,67.4,61.0,29.67,ENE,59,0.0,4.0,81,0.00,,,0.00,weatherlink.com 1.10,2013-05-20 10:11:00,
2013-05-20 05:26:00,67.1,61.0,29.68,ENE,59,1.0,4.0,81,0.00,,,0.00,weatherlink.com 1.10,2013-05-20 10:26:00,
2013-05-20 05:41:00,66.9,61.0,29.68,ENE,74,0.0,2.0,82,0.00,,,0.00,weatherlink.com 1.10,2013-05-20 10:41:00,
2013-05-20 05:56:00,66.8,62.0,29.67,ENE,77,1.0,5.0,83,0.00,,,0.00,weatherlink.com 1.10,2013-05-20 10:56:00,
2013-05-20 06:11:00,66.9,63.0,29.66,East,96,2.0,5.0,86,0.00,,,0.00,weatherlink.com 1.10,2013-05-20 11:11:00,
2013-05-20 06:26:00,67.2,63.0,29.68,ENE,78,3.0,4.0,87,0.00,,,0.00,weatherlink.com 1.10,2013-05-20 11:26:00,
2013-05-20 06:41:00,68.1,64.0,29.71,ESE,112,0.0,2.0,87,0.00,,,0.00,weatherlink.com 1.10,2013-05-20 11:41:00,
2013-05-20 06:56:00,69.5,65.0,29.70,ENE,71,1.0,2.0,86,0.00,,,0.00,weatherlink.com 1.10,2013-05-20 11:56:00,
2013-05-20 07:11:00,69.6,65.0,29.70,ENE,66,4.0,6.0,86,0.00,,,0.00,weatherlink.com 1.10,2013-05-20 12:11:00,
2013-05-20 07:26:00,71.1,65.0,29.70,SW,220,1.0,5.0,81,0.00,,,0.00,weatherlink.com 1.10,2013-05-20 12:26:00,
2013-05-20 07:41:00,72.2,66.0,29.71,SW,232,6.0,6.0,80,0.00,,,0.00,weatherlink.com 1.10,2013-05-20 12:41:00,
2013-05-20 07:56:00,72.5,65.0,29.70,SW,228,2.0,11.0,77,0.00,,,0.00,weatherlink.com 1.10,2013-05-20 12:56:00,
2013-05-20 08:11:00,72.5,64.0,29.68,ESE,118,8.0,10.0,75,0.00,,,0.00,weatherlink.com 1.10,2013-05-20 13:11:00,
2013-05-20 08:26:00,72.7,64.0,29.67,SE,127,3.0,5.0,73,0.00,,,0.00,weatherlink.com 1.10,2013-05-20 13:26:00,
2013-05-20 08:41:00,72.4,64.0,29.68,SE,145,1.0,5.0,74,0.00,,,0.00,weatherlink.com 1.10,2013-05-20 13:41:00,
2013-05-20 08:56:00,72.5,64.0,29.68,SE,138,0.0,7.0,74,0.00,,,0.00,weatherlink.com 1.10,2013-05-20 13:56:00,
2013-05-20 09:11:00,73.1,63.0,29.68,South,179,1.0,6.0,71,0.00,,,0.00,weatherlink.com 1.10,2013-05-20 14:11:00,
2013-05-20 09:27:00,73.7,63.0,29.67,East,101,4.0,6.0,69,0.00,,,0.00,weatherlink.com 1.10,2013-05-20 14:27:00,
2013-05-20 09:42:00,74.5,64.0,29.66,SSW,211,0.0,6.0,69,0.00,,,0.00,weatherlink.com 1.10,2013-05-20 14:42:00,
2013-05-20 09:57:00,75.2,63.0,29.67,WSW,245,2.0,8.0,67,0.00,,,0.00,weatherlink.com 1.10,2013-05-20 14:57:00,
2013-05-20 10:12:00,76.1,63.0,29.68,WSW,245,5.0,7.0,65,0.00,,,0.00,weatherlink.com 1.10,2013-05-20 15:12:00,
2013-05-20 10:27:00,77.1,62.0,29.69,SW,235,2.0,12.0,60,0.00,,,0.00,weatherlink.com 1.10,2013-05-20 15:27:00,
2013-05-20 10:42:00,77.2,64.0,29.70,WSW,250,6.0,12.0,63,0.00,,,0.00,weatherlink.com 1.10,2013-05-20 15:42:00,
2013-05-20 10:57:00,77.8,62.0,29.69,WSW,246,3.0,15.0,58,0.00,,,0.00,weatherlink.com 1.10,2013-05-20 15:57:00,
2013-05-20 11:12:00,78.2,61.0,29.69,SW,221,8.0,15.0,56,0.00,,,0.00,weatherlink.com 1.10,2013-05-20 16:12:00,
2013-05-20 11:27:00,77.2,60.0,29.68,SW,226,12.0,16.0,56,0.00,,,0.00,weatherlink.com 1.10,2013-05-20 16:27:00,
2013-05-20 11:42:00,78.0,63.0,29.69,SW,233,7.0,16.0,60,0.00,,,0.00,weatherlink.com 1.10,2013-05-20 16:42:00,
2013-05-20 11:57:00,79.5,62.0,29.69,SW,229,5.0,10.0,55,0.00,,,0.00,weatherlink.com 1.10,2013-05-20 16:57:00,
2013-05-20 12:12:00,79.4,61.0,29.69,West,270,6.0,13.0,53,0.00,,,0.00,weatherlink.com 1.10,2013-05-20 17:12:00,
2013-05-20 12:27:00,79.6,61.0,29.68,SW,236,2.0,13.0,53,0.00,,,0.00,weatherlink.com 1.10,2013-05-20 17:27:00,
2013-05-20 12:42:00,81.3,60.0,29.68,SW,222,4.0,9.0,49,0.00,,,0.00,weatherlink.com 1.10,2013-05-20 17:42:00,
2013-05-20 12:57:00,81.0,61.0,29.69,South,177,5.0,10.0,50,0.00,,,0.00,weatherlink.com 1.10,2013-05-20 17:57:00,
2013-05-20 13:12:00,81.0,62.0,29.69,ESE,122,2.0,13.0,52,0.00,,,0.00,weatherlink.com 1.10,2013-05-20 18:12:00,
2013-05-20 13:27:00,82.0,64.0,29.68,SW,222,1.0,10.0,54,0.00,,,0.00,weatherlink.com 1.10,2013-05-20 18:27:00,
2013-05-20 13:42:00,82.3,63.0,29.68,SW,226,4.0,11.0,52,0.00,,,0.00,weatherlink.com 1.10,2013-05-20 18:42:00,
2013-05-20 13:57:00,82.8,61.0,29.67,WSW,242,5.0,11.0,47,0.00,,,0.00,weatherlink.com 1.10,2013-05-20 18:57:00,
2013-05-20 14:12:00,83.4,64.0,29.67,South,181,7.0,13.0,52,0.00,,,0.00,weatherlink.com 1.10,2013-05-20 19:12:00,
2013-05-20 14:27:00,82.7,62.0,29.67,WSW,256,6.0,16.0,50,0.00,,,0.00,weatherlink.com 1.10,2013-05-20 19:27:00,
2013-05-20 14:42:00,82.8,61.0,29.67,WSW,238,8.0,16.0,47,0.00,,,0.00,weatherlink.com 1.10,2013-05-20 19:42:00,
2013-05-20 14:57:00,83.1,61.0,29.67,WSW,244,9.0,23.0,47,0.00,,,0.00,weatherlink.com 1.10,2013-05-20 19:57:00,
2013-05-20 15:12:00,83.2,62.0,29.66,West,264,8.0,17.0,49,0.00,,,0.00,weatherlink.com 1.10,2013-05-20 20:12:00,
2013-05-20 15:27:00,83.5,62.0,29.66,WSW,250,9.0,13.0,49,0.00,,,0.00,weatherlink.com 1.10,2013-05-20 20:27:00,
2013-05-20 15:42:00,83.8,61.0,29.66,SW,233,6.0,13.0,46,0.00,,,0.00,weatherlink.com 1.10,2013-05-20 20:42:00,
2013-05-20 15:57:00,83.9,60.0,29.66,WSW,245,5.0,15.0,45,0.00,,,0.00,weatherlink.com 1.10,2013-05-20 20:57:00,
2013-05-20 16:12:00,83.5,59.0,29.66,WSW,245,7.0,15.0,44,0.00,,,0.00,weatherlink.com 1.10,2013-05-20 21:12:00,
2013-05-20 16:27:00,83.1,60.0,29.65,SW,235,8.0,18.0,45,0.00,,,0.00,weatherlink.com 1.10,2013-05-20 21:27:00,
2013-05-20 16:42:00,83.0,60.0,29.65,WSW,240,8.0,18.0,46,0.00,,,0.00,weatherlink.com 1.10,2013-05-20 21:42:00,
2013-05-20 16:57:00,83.4,59.0,29.64,West,270,9.0,18.0,44,0.00,,,0.00,weatherlink.com 1.10,2013-05-20 21:57:00,
2013-05-20 17:12:00,83.5,60.0,29.64,West,259,7.0,12.0,45,0.00,,,0.00,weatherlink.com 1.10,2013-05-20 22:12:00,
2013-05-20 17:27:00,83.5,62.0,29.64,WSW,257,9.0,13.0,48,0.00,,,0.00,weatherlink.com 1.10,2013-05-20 22:27:00,
2013-05-20 17:42:00,83.8,60.0,29.64,SW,236,2.0,15.0,45,0.00,,,0.00,weatherlink.com 1.10,2013-05-20 22:42:00,
2013-05-20 17:57:00,83.5,61.0,29.64,West,260,5.0,11.0,46,0.00,,,0.00,weatherlink.com 1.10,2013-05-20 22:57:00,
2013-05-20 18:12:00,83.5,61.0,29.63,SW,214,2.0,9.0,46,0.00,,,0.00,weatherlink.com 1.10,2013-05-20 23:12:00,
2013-05-20 18:27:00,83.4,61.0,29.63,SW,215,7.0,10.0,47,0.00,,,0.00,weatherlink.com 1.10,2013-05-20 23:27:00,
2013-05-20 18:43:00,82.8,59.0,29.63,WSW,240,8.0,15.0,44,0.00,,,0.00,weatherlink.com 1.10,2013-05-20 23:43:00,
2013-05-20 18:58:00,82.3,59.0,29.64,SW,224,3.0,10.0,45,0.00,,,0.00,weatherlink.com 1.10,2013-05-20 23:58:00,
2013-05-20 19:13:00,81.5,59.0,29.64,WSW,248,7.0,9.0,47,0.00,,,0.00,weatherlink.com 1.10,2013-05-21 00:13:00,
2013-05-20 19:28:00,80.8,59.0,29.64,SSW,200,4.0,11.0,48,0.00,,,0.00,weatherlink.com 1.10,2013-05-21 00:28:00,
2013-05-20 19:43:00,79.6,60.0,29.64,SSW,210,4.0,7.0,51,0.00,,,0.00,weatherlink.com 1.10,2013-05-21 00:43:00,
2013-05-20 19:58:00,79.0,59.0,29.65,SW,219,4.0,12.0,51,0.00,,,0.00,weatherlink.com 1.10,2013-05-21 00:58:00,
2013-05-20 20:13:00,77.6,59.0,29.65,WSW,240,2.0,4.0,53,0.00,,,0.00,weatherlink.com 1.10,2013-05-21 01:13:00,
2013-05-20 20:28:00,76.5,59.0,29.65,West,259,0.0,2.0,54,0.00,,,0.00,weatherlink.com 1.10,2013-05-21 01:28:00,
2013-05-20 20:43:00,75.7,58.0,29.65,WSW,257,0.0,0.0,55,0.00,,,0.00,weatherlink.com 1.10,2013-05-21 01:43:00,
2013-05-20 20:58:00,74.4,58.0,29.65,WSW,257,0.0,0.0,57,0.00,,,0.00,weatherlink.com 1.10,2013-05-21 01:58:00,
2013-05-20 21:13:00,73.6,58.0,29.65,WSW,257,0.0,0.0,59,0.00,,,0.00,weatherlink.com 1.10,2013-05-21 02:13:00,
2013-05-20 21:28:00,73.9,59.0,29.65,WSW,257,0.0,0.0,60,0.00,,,0.00,weatherlink.com 1.10,2013-05-21 02:28:00,
2013-05-20 21:43:00,73.5,59.0,29.65,WSW,248,3.0,3.0,61,0.00,,,0.00,weatherlink.com 1.10,2013-05-21 02:43:00,
2013-05-20 21:58:00,73.2,59.0,29.66,WSW,255,0.0,2.0,62,0.00,,,0.00,weatherlink.com 1.10,2013-05-21 02:58:00,
2013-05-20 22:13:00,73.3,59.0,29.65,West,274,0.0,1.0,62,0.00,,,0.00,weatherlink.com 1.10,2013-05-21 03:13:00,
2013-05-20 22:28:00,73.0,60.0,29.65,West,271,0.0,0.0,63,0.00,,,0.00,weatherlink.com 1.10,2013-05-21 03:28:00,
2013-05-20 22:43:00,73.4,59.0,29.63,NE,55,0.0,0.0,62,0.00,,,0.00,weatherlink.com 1.10,2013-05-21 03:43:00,
2013-05-20 22:58:00,73.0,60.0,29.62,NE,49,0.0,1.0,64,0.00,,,0.00,weatherlink.com 1.10,2013-05-21 03:58:00,
2013-05-20 23:13:00,72.4,60.0,29.63,NE,49,0.0,0.0,66,0.00,,,0.00,weatherlink.com 1.10,2013-05-21 04:13:00,
2013-05-20 23:28:00,70.8,61.0,29.66,West,269,2.0,4.0,72,0.00,,,0.00,weatherlink.com 1.10,2013-05-21 04:28:00,
2013-05-20 23:43:00,70.2,62.0,29.65,South,180,3.0,5.0,74,0.01,,,0.01,weatherlink.com 1.10,2013-05-21 04:43:00,
2013-05-20 23:58:00,69.8,63.0,29.62,East,98,2.0,11.0,78,0.03,,,0.03,weatherlink.com 1.10,2013-05-21 04:58:00,